Time;durP1;ratioP1;P1;durP2;ratioP2;P2;SDS_P1;SDS_P2;PMS_P1;PMS_P2;Temp;Humidity;BMP_temperature;BMP_pressure;BME280_temperature;BME280_humidity;BME280_pressure;Samples;Min_cycle;Max_cycle;Signal;HPM_P1;HPM_P2
2023/06/17 00:02:07;;;;;;;5.05;2.58;;;;;;;;;;5283390;28;20125;-76
2023/06/17 00:04:38;;;;;;;8.80;2.50;;;;;;;;;;5283585;28;20024;-77
2023/06/17 00:07:10;;;;;;;5.43;2.70;;;;;;;;;;5282647;28;20016;-77
2023/06/17 00:09:44;;;;;;;6.82;2.30;;;;;;;;;;5283051;28;20031;-77
2023/06/17 00:12:15;;;;;;;6.90;2.75;;;;;;;;;;5282587;28;20104;-76
2023/06/17 00:14:46;;;;;;;5.90;3.15;;;;;;;;;;5282553;28;20103;-77
2023/06/17 00:17:17;;;;;;;9.20;2.60;;;;;;;;;;5283558;28;20031;-77
2023/06/17 00:19:49;;;;;;;7.40;2.60;;;;;;;;;;5282118;28;20100;-76
2023/06/17 00:22:20;;;;;;;6.68;2.58;;;;;;;;;;5283307;28;20274;-76
2023/06/17 00:24:51;;;;;;;6.93;2.90;;;;;;;;;;5282709;28;20325;-77
2023/06/17 00:27:22;;;;;;;8.35;2.67;;;;;;;;;;5282569;28;20275;-77
2023/06/17 00:29:54;;;;;;;4.65;2.58;;;;;;;;;;5283080;28;20378;-77
2023/06/17 00:32:28;;;;;;;11.65;3.60;;;;;;;;;;5282938;28;20016;-78
2023/06/17 00:34:59;;;;;;;6.38;2.80;;;;;;;;;;5281948;28;20028;-77
2023/06/17 00:37:31;;;;;;;9.07;2.88;;;;;;;;;;5282692;28;20455;-76
2023/06/17 00:40:07;;;;;;;6.10;2.67;;;;;;;;;;5282969;28;20021;-77
2023/06/17 00:42:39;;;;;;;5.53;3.10;;;;;;;;;;5282571;28;20023;-76
2023/06/17 00:45:11;;;;;;;8.70;2.80;;;;;;;;;;5283153;28;20017;-76
2023/06/17 00:47:42;;;;;;;8.13;3.20;;;;;;;;;;5281682;28;20437;-76
2023/06/17 00:50:15;;;;;;;3.28;2.75;;;;;;;;;;5282712;28;20302;-76
2023/06/17 00:52:47;;;;;;;4.10;2.85;;;;;;;;;;5282535;28;20461;-76
2023/06/17 00:55:20;;;;;;;9.75;3.13;;;;;;;;;;5281946;28;20063;-77
2023/06/17 00:57:53;;;;;;;5.15;3.53;;;;;;;;;;5281942;28;20012;-76
2023/06/17 01:00:24;;;;;;;7.30;3.33;;;;;;;;;;5282168;28;20137;-77
2023/06/17 01:02:56;;;;;;;6.55;3.15;;;;;;;;;;5281435;28;20021;-76
2023/06/17 01:05:27;;;;;;;7.95;3.13;;;;;;;;;;5282402;28;20021;-76
2023/06/17 01:07:59;;;;;;;8.37;3.30;;;;;;;;;;5282223;28;20027;-76
2023/06/17 01:10:34;;;;;;;8.32;3.75;;;;;;;;;;5281439;28;20279;-76
2023/06/17 01:13:05;;;;;;;6.40;3.67;;;;;;;;;;5281996;28;20471;-76
2023/06/17 01:15:37;;;;;;;4.47;3.55;;;;;;;;;;5281129;28;20047;-76
2023/06/17 01:18:08;;;;;;;8.20;3.13;;;;;;;;;;5281830;28;20016;-76
2023/06/17 01:20:40;;;;;;;5.35;3.88;;;;;;;;;;5282028;28;20375;-77
2023/06/17 01:23:12;;;;;;;9.35;3.65;;;;;;;;;;5280980;28;20042;-76
2023/06/17 01:25:43;;;;;;;10.00;4.03;;;;;;;;;;5281574;28;20038;-77
2023/06/17 01:28:20;;;;;;;7.90;3.40;;;;;;;;;;5282252;28;20490;-76
2023/06/17 01:31:00;;;;;;;7.70;3.58;;;;;;;;;;5280475;28;20048;-76
2023/06/17 01:33:31;;;;;;;5.85;3.50;;;;;;;;;;5281823;28;20031;-77
2023/06/17 01:36:06;;;;;;;7.30;3.72;;;;;;;;;;5281506;28;20028;-77
2023/06/17 01:38:41;;;;;;;8.07;3.83;;;;;;;;;;5280809;28;20012;-77
2023/06/17 01:41:26;;;;;;;4.75;3.95;;;;;;;;;;5282109;28;20028;-77
2023/06/17 01:43:58;;;;;;;7.53;3.40;;;;;;;;;;5280931;28;20471;-77
2023/06/17 01:46:29;;;;;;;7.80;3.47;;;;;;;;;;5281524;28;20054;-77
2023/06/17 01:49:00;;;;;;;6.57;3.40;;;;;;;;;;5281502;28;20039;-77
2023/06/17 01:51:32;;;;;;;6.15;3.10;;;;;;;;;;5280586;28;20467;-77
2023/06/17 01:54:03;;;;;;;4.25;3.38;;;;;;;;;;5281269;28;20016;-77
2023/06/17 01:56:34;;;;;;;8.30;3.78;;;;;;;;;;5281457;28;20426;-77
2023/06/17 01:59:05;;;;;;;4.17;3.43;;;;;;;;;;5280546;28;20017;-77
2023/06/17 02:01:37;;;;;;;6.95;3.55;;;;;;;;;;5281629;28;20761;-77
2023/06/17 02:04:08;;;;;;;5.87;3.90;;;;;;;;;;5281712;28;20017;-77
2023/06/17 02:06:39;;;;;;;5.10;3.00;;;;;;;;;;5280735;28;20281;-76
2023/06/17 02:09:13;;;;;;;9.23;3.63;;;;;;;;;;5281500;28;20255;-77
2023/06/17 02:11:44;;;;;;;8.25;3.17;;;;;;;;;;5280449;28;20124;-77
2023/06/17 02:14:15;;;;;;;7.20;3.45;;;;;;;;;;5281829;28;20095;-77
2023/06/17 02:16:47;;;;;;;6.50;3.30;;;;;;;;;;5280851;28;20119;-77
2023/06/17 02:19:18;;;;;;;4.57;3.05;;;;;;;;;;5280695;28;20283;-77
2023/06/17 02:21:49;;;;;;;5.40;3.17;;;;;;;;;;5280821;28;20104;-75
2023/06/17 02:24:21;;;;;;;6.60;3.03;;;;;;;;;;5281656;28;20021;-75
2023/06/17 02:26:52;;;;;;;5.40;3.45;;;;;;;;;;5280043;28;20032;-76
2023/06/17 02:29:26;;;;;;;5.30;2.72;;;;;;;;;;5281331;28;20522;-76
2023/06/17 02:31:57;;;;;;;7.85;3.42;;;;;;;;;;5281166;28;20020;-77
2023/06/17 02:34:28;;;;;;;8.95;3.58;;;;;;;;;;5280891;28;20082;-76
2023/06/17 02:37:00;;;;;;;4.50;3.00;;;;;;;;;;5285004;28;20032;-78
2023/06/17 02:39:31;;;;;;;6.40;3.87;;;;;;;;;;5285209;28;20013;-77
2023/06/17 02:42:03;;;;;;;7.25;2.72;;;;;;;;;;5284468;28;20289;-77
2023/06/17 02:44:35;;;;;;;7.13;3.53;;;;;;;;;;5284864;28;20023;-76
2023/06/17 02:47:07;;;;;;;6.78;3.03;;;;;;;;;;5284282;28;20021;-75
2023/06/17 02:49:38;;;;;;;6.78;3.00;;;;;;;;;;5284892;28;20017;-75
2023/06/17 02:52:09;;;;;;;14.02;3.10;;;;;;;;;;5284523;28;20078;-76
2023/06/17 02:54:42;;;;;;;7.40;3.20;;;;;;;;;;5283355;28;20424;-76
2023/06/17 02:57:13;;;;;;;6.10;3.08;;;;;;;;;;5284842;28;20263;-76
2023/06/17 02:59:45;;;;;;;11.23;3.90;;;;;;;;;;5284424;28;20043;-76
2023/06/17 03:02:16;;;;;;;8.55;3.33;;;;;;;;;;5284208;28;20027;-76
2023/06/17 03:04:48;;;;;;;6.25;3.60;;;;;;;;;;5284386;28;20019;-77
2023/06/17 03:07:19;;;;;;;10.25;3.42;;;;;;;;;;5284625;28;20270;-77
2023/06/17 03:09:50;;;;;;;6.85;3.42;;;;;;;;;;5283323;28;20467;-77
2023/06/17 03:12:21;;;;;;;7.67;3.30;;;;;;;;;;5284572;28;20749;-77
2023/06/17 03:14:53;;;;;;;4.33;3.43;;;;;;;;;;5283310;28;20629;-77
2023/06/17 03:17:24;;;;;;;7.53;3.43;;;;;;;;;;5284457;28;20274;-77
2023/06/17 03:19:56;;;;;;;6.57;3.25;;;;;;;;;;5284049;28;20262;-77
2023/06/17 03:22:27;;;;;;;10.77;3.80;;;;;;;;;;5283551;28;20074;-77
2023/06/17 03:24:59;;;;;;;9.97;4.03;;;;;;;;;;5284352;28;20103;-76
2023/06/17 03:27:31;;;;;;;8.38;3.42;;;;;;;;;;5284332;28;20279;-78
2023/06/17 03:30:03;;;;;;;11.32;4.03;;;;;;;;;;5283405;28;20021;-78
2023/06/17 03:32:35;;;;;;;4.03;3.13;;;;;;;;;;5284048;28;20028;-78
2023/06/17 03:35:06;;;;;;;6.55;3.38;;;;;;;;;;5284112;28;20084;-77
2023/06/17 03:37:37;;;;;;;6.10;3.53;;;;;;;;;;5283568;28;20024;-78
2023/06/17 03:40:09;;;;;;;10.63;3.97;;;;;;;;;;5283927;28;20019;-77
2023/06/17 03:42:40;;;;;;;4.60;3.72;;;;;;;;;;5283415;28;20271;-78
2023/06/17 03:45:11;;;;;;;6.10;3.53;;;;;;;;;;5283103;28;20382;-78
2023/06/17 03:47:42;;;;;;;7.18;3.15;;;;;;;;;;5282718;28;20029;-78
2023/06/17 03:50:14;;;;;;;5.60;4.13;;;;;;;;;;5283078;28;20487;-78
2023/06/17 03:52:45;;;;;;;6.97;2.83;;;;;;;;;;5283187;28;20698;-78
2023/06/17 03:55:16;;;;;;;8.30;3.50;;;;;;;;;;5283742;28;20039;-78
2023/06/17 03:57:48;;;;;;;6.00;3.60;;;;;;;;;;5282551;28;20263;-78
2023/06/17 04:00:19;;;;;;;7.27;3.40;;;;;;;;;;5283911;28;20020;-76
2023/06/17 04:02:51;;;;;;;9.60;3.95;;;;;;;;;;5283441;28;20270;-77
2023/06/17 04:05:31;;;;;;;9.45;3.92;;;;;;;;;;5283106;28;20463;-77
2023/06/17 04:08:03;;;;;;;8.48;3.95;;;;;;;;;;5283245;28;20105;-77
2023/06/17 04:10:34;;;;;;;8.40;4.13;;;;;;;;;;5283323;28;20024;-78
2023/06/17 04:13:05;;;;;;;7.72;4.05;;;;;;;;;;5282569;28;20021;-77
2023/06/17 04:15:36;;;;;;;10.67;4.50;;;;;;;;;;5283039;28;20115;-77
2023/06/17 04:18:07;;;;;;;9.00;4.30;;;;;;;;;;5282817;28;20320;-77
2023/06/17 04:20:39;;;;;;;7.10;4.50;;;;;;;;;;5282256;28;20069;-77
2023/06/17 04:23:10;;;;;;;7.97;3.92;;;;;;;;;;5283244;28;20017;-77
2023/06/17 04:25:43;;;;;;;6.03;3.78;;;;;;;;;;5281688;28;20023;-77
2023/06/17 04:28:17;;;;;;;9.45;3.55;;;;;;;;;;5283272;28;20024;-77
2023/06/17 04:30:51;;;;;;;5.50;3.10;;;;;;;;;;5282675;28;20025;-77
2023/06/17 04:33:24;;;;;;;5.82;3.35;;;;;;;;;;5282273;28;20154;-77
2023/06/17 04:35:55;;;;;;;7.93;3.70;;;;;;;;;;5282618;28;20111;-77
2023/06/17 04:38:26;;;;;;;9.07;3.78;;;;;;;;;;5282816;28;20464;-77
2023/06/17 04:40:58;;;;;;;7.70;3.63;;;;;;;;;;5281713;28;20029;-77
2023/06/17 04:43:29;;;;;;;8.65;3.65;;;;;;;;;;5282305;28;20765;-77
2023/06/17 04:46:01;;;;;;;9.77;4.15;;;;;;;;;;5282762;28;20023;-77
2023/06/17 04:48:32;;;;;;;8.45;4.13;;;;;;;;;;5281613;28;20012;-77
2023/06/17 04:51:03;;;;;;;4.60;4.20;;;;;;;;;;5282177;28;20041;-77
2023/06/17 04:53:34;;;;;;;8.48;4.38;;;;;;;;;;5281598;28;20759;-78
2023/06/17 04:56:06;;;;;;;9.75;4.97;;;;;;;;;;5282254;28;20032;-77
2023/06/17 04:58:37;;;;;;;8.90;5.25;;;;;;;;;;5281603;28;20440;-77
2023/06/17 05:01:10;;;;;;;8.43;5.27;;;;;;;;;;5281574;28;20033;-77
2023/06/17 05:03:42;;;;;;;7.45;5.35;;;;;;;;;;5281821;28;20299;-77
2023/06/17 05:06:13;;;;;;;7.33;5.60;;;;;;;;;;5282222;28;20098;-77
2023/06/17 05:08:44;;;;;;;10.70;6.90;;;;;;;;;;5280738;28;20267;-77
2023/06/17 05:11:15;;;;;;;9.63;7.73;;;;;;;;;;5282561;28;20380;-77
2023/06/17 05:13:46;;;;;;;10.82;8.63;;;;;;;;;;5281911;28;20259;-77
2023/06/17 05:16:17;;;;;;;10.77;9.68;;;;;;;;;;5281513;28;20377;-77
2023/06/17 05:18:49;;;;;;;10.35;9.02;;;;;;;;;;5282210;28;20451;-79
2023/06/17 05:21:20;;;;;;;10.03;9.10;;;;;;;;;;5282085;28;20583;-76
2023/06/17 05:23:51;;;;;;;10.05;9.05;;;;;;;;;;5281074;28;20616;-76
2023/06/17 05:26:23;;;;;;;11.97;10.77;;;;;;;;;;5282239;28;20021;-77
2023/06/17 05:28:54;;;;;;;10.70;9.70;;;;;;;;;;5281151;28;20267;-77
2023/06/17 05:31:25;;;;;;;10.68;9.73;;;;;;;;;;5281603;28;20024;-78
2023/06/17 05:33:57;;;;;;;12.03;10.93;;;;;;;;;;5282097;28;20455;-77
2023/06/17 05:36:28;;;;;;;11.70;10.50;;;;;;;;;;5280994;28;20306;-77
2023/06/17 05:38:59;;;;;;;11.98;10.57;;;;;;;;;;5281765;28;20020;-77
2023/06/17 05:41:30;;;;;;;10.93;10.00;;;;;;;;;;5281542;28;20494;-76
2023/06/17 05:44:01;;;;;;;10.95;10.02;;;;;;;;;;5280940;28;20251;-77
2023/06/17 05:46:32;;;;;;;12.13;10.18;;;;;;;;;;5281921;28;20037;-78
2023/06/17 05:49:04;;;;;;;11.10;9.98;;;;;;;;;;5282056;28;20043;-78
2023/06/17 05:51:35;;;;;;;11.07;10.10;;;;;;;;;;5280808;28;20044;-78
2023/06/17 05:54:06;;;;;;;11.30;10.30;;;;;;;;;;5281716;28;20017;-78
2023/06/17 05:56:37;;;;;;;10.63;9.57;;;;;;;;;;5280614;28;20294;-78
2023/06/17 05:59:08;;;;;;;10.40;9.50;;;;;;;;;;5281592;28;20761;-77
2023/06/17 06:01:40;;;;;;;10.25;9.27;;;;;;;;;;5281297;28;20357;-77
2023/06/17 06:04:11;;;;;;;10.98;9.88;;;;;;;;;;5281232;28;20013;-77
2023/06/17 06:06:42;;;;;;;10.30;9.33;;;;;;;;;;5281054;28;20474;-78
2023/06/17 06:09:13;;;;;;;12.93;11.70;;;;;;;;;;5281794;28;20796;-77
2023/06/17 06:11:44;;;;;;;10.40;9.55;;;;;;;;;;5285019;28;20594;-77
2023/06/17 06:14:15;;;;;;;11.85;10.60;;;;;;;;;;5285962;28;20017;-78
2023/06/17 06:16:47;;;;;;;12.23;9.55;;;;;;;;;;5285297;28;20119;-78
2023/06/17 06:19:18;;;;;;;11.38;10.25;;;;;;;;;;5284906;28;20448;-78
2023/06/17 06:21:49;;;;;;;9.80;8.90;;;;;;;;;;5285465;28;20017;-78
2023/06/17 06:24:20;;;;;;;10.75;9.75;;;;;;;;;;5285841;28;20020;-76
2023/06/17 06:26:51;;;;;;;12.50;9.83;;;;;;;;;;5284461;28;20070;-77
2023/06/17 06:29:23;;;;;;;10.90;9.90;;;;;;;;;;5285488;28;20349;-77
2023/06/17 06:31:54;;;;;;;13.82;10.52;;;;;;;;;;5284388;28;20309;-77
2023/06/17 06:34:25;;;;;;;11.52;9.98;;;;;;;;;;5285535;28;20048;-77
2023/06/17 06:36:58;;;;;;;12.77;10.57;;;;;;;;;;5285320;28;20045;-77
2023/06/17 06:39:29;;;;;;;11.93;9.52;;;;;;;;;;5284546;28;20278;-77
2023/06/17 06:42:00;;;;;;;9.50;8.70;;;;;;;;;;5285226;28;20025;-77
2023/06/17 06:44:31;;;;;;;10.00;9.10;;;;;;;;;;5285062;28;20028;-78
2023/06/17 06:47:03;;;;;;;10.30;7.73;;;;;;;;;;5283675;28;20052;-76
2023/06/17 06:49:34;;;;;;;10.68;7.65;;;;;;;;;;5284740;28;20270;-77
2023/06/17 06:52:06;;;;;;;10.27;9.25;;;;;;;;;;5284366;28;20052;-77
2023/06/17 06:54:37;;;;;;;10.75;9.13;;;;;;;;;;5283719;28;20031;-77
2023/06/17 06:57:08;;;;;;;9.75;8.63;;;;;;;;;;5284366;28;20030;-77
2023/06/17 06:59:40;;;;;;;13.68;10.13;;;;;;;;;;5284289;28;20375;-79
2023/06/17 07:02:11;;;;;;;8.10;7.47;;;;;;;;;;5284174;28;20024;-78
2023/06/17 07:04:43;;;;;;;8.30;7.50;;;;;;;;;;5283999;28;20016;-78
2023/06/17 07:07:14;;;;;;;8.70;7.60;;;;;;;;;;5283767;28;20351;-79
2023/06/17 07:09:45;;;;;;;9.18;8.27;;;;;;;;;;5284250;28;20090;-78
2023/06/17 07:12:17;;;;;;;8.77;7.70;;;;;;;;;;5284853;28;20027;-78
2023/06/17 07:14:48;;;;;;;10.30;6.88;;;;;;;;;;5282807;28;20354;-77
2023/06/17 07:17:19;;;;;;;12.07;6.90;;;;;;;;;;5284623;28;20025;-77
2023/06/17 07:19:50;;;;;;;6.85;6.20;;;;;;;;;;5283867;28;20333;-78
2023/06/17 07:22:21;;;;;;;6.55;5.90;;;;;;;;;;5282948;28;20023;-78
2023/06/17 07:24:53;;;;;;;7.88;7.07;;;;;;;;;;5283854;28;20021;-77
2023/06/17 07:27:24;;;;;;;9.73;8.45;;;;;;;;;;5284243;28;20104;-77
2023/06/17 07:29:55;;;;;;;16.83;8.75;;;;;;;;;;5283176;28;20021;-77
2023/06/17 07:32:26;;;;;;;10.60;9.70;;;;;;;;;;5284138;28;20017;-78
2023/06/17 07:34:57;;;;;;;9.53;8.67;;;;;;;;;;5284090;28;20017;-77
2023/06/17 07:37:29;;;;;;;11.32;10.20;;;;;;;;;;5283496;28;20279;-78
2023/06/17 07:40:00;;;;;;;9.68;8.68;;;;;;;;;;5283828;28;20020;-77
2023/06/17 07:42:31;;;;;;;9.57;8.30;;;;;;;;;;5282556;28;20482;-79
2023/06/17 07:45:02;;;;;;;7.82;7.05;;;;;;;;;;5284089;28;20680;-78
2023/06/17 07:47:33;;;;;;;7.95;7.15;;;;;;;;;;5284040;28;20162;-78
2023/06/17 07:50:05;;;;;;;7.20;6.43;;;;;;;;;;5283026;28;20052;-78
2023/06/17 07:52:36;;;;;;;7.05;6.30;;;;;;;;;;5284090;28;20336;-79
2023/06/17 07:55:08;;;;;;;7.28;6.53;;;;;;;;;;5283437;28;20050;-78
2023/06/17 07:57:40;;;;;;;7.60;5.38;;;;;;;;;;5282915;28;20097;-79
2023/06/17 08:00:13;;;;;;;5.57;4.20;;;;;;;;;;5283457;28;20075;-79
2023/06/17 08:02:44;;;;;;;3.53;2.15;;;;;;;;;;5283024;28;20494;-79
2023/06/17 08:05:16;;;;;;;6.25;3.08;;;;;;;;;;5282653;28;20017;-78
2023/06/17 08:07:47;;;;;;;7.13;3.20;;;;;;;;;;5282955;28;20099;-78
2023/06/17 08:10:18;;;;;;;6.70;3.03;;;;;;;;;;5282824;28;20368;-77
2023/06/17 08:12:50;;;;;;;3.67;3.37;;;;;;;;;;5282981;28;20273;-78
2023/06/17 08:15:22;;;;;;;7.35;3.92;;;;;;;;;;5283510;28;20298;-79
2023/06/17 08:17:53;;;;;;;6.20;2.35;;;;;;;;;;5281733;28;20021;-80
2023/06/17 08:20:24;;;;;;;5.07;2.77;;;;;;;;;;5282827;28;20029;-78
2023/06/17 08:22:55;;;;;;;6.43;3.78;;;;;;;;;;5282655;28;20305;-79
2023/06/17 08:25:26;;;;;;;4.07;2.40;;;;;;;;;;5281856;28;20037;-78
2023/06/17 08:27:58;;;;;;;6.10;2.83;;;;;;;;;;5282268;28;20294;-78
2023/06/17 08:30:29;;;;;;;6.07;2.65;;;;;;;;;;5282409;28;20028;-79
2023/06/17 08:33:00;;;;;;;6.40;4.82;;;;;;;;;;5281493;28;20024;-79
2023/06/17 08:35:32;;;;;;;4.77;4.30;;;;;;;;;;5283121;28;20530;-80
2023/06/17 08:38:03;;;;;;;8.43;3.92;;;;;;;;;;5282112;28;20028;-79
2023/06/17 08:40:36;;;;;;;11.30;4.55;;;;;;;;;;5282019;28;20052;-78
2023/06/17 08:43:08;;;;;;;7.35;3.10;;;;;;;;;;5282621;28;20020;-79
2023/06/17 08:45:39;;;;;;;6.47;2.80;;;;;;;;;;5281857;28;20028;-79
2023/06/17 08:48:11;;;;;;;4.40;1.70;;;;;;;;;;5282857;28;20367;-79
2023/06/17 08:50:42;;;;;;;3.63;1.77;;;;;;;;;;5282015;28;20546;-80
2023/06/17 08:53:14;;;;;;;6.88;2.00;;;;;;;;;;5281900;28;20471;-79
2023/06/17 08:55:45;;;;;;;6.63;2.38;;;;;;;;;;5281605;28;20029;-79
2023/06/17 08:58:16;;;;;;;3.30;2.28;;;;;;;;;;5282869;28;20051;-80
2023/06/17 09:00:48;;;;;;;3.30;1.93;;;;;;;;;;5281206;28;20111;-80
2023/06/17 09:03:21;;;;;;;2.65;1.70;;;;;;;;;;5282171;28;20016;-80
2023/06/17 09:05:53;;;;;;;3.05;1.00;;;;;;;;;;5281900;28;20360;-79
2023/06/17 09:08:24;;;;;;;2.53;1.00;;;;;;;;;;5280921;28;20109;-80
2023/06/17 09:11:03;;;;;;;3.60;1.00;;;;;;;;;;5281890;28;20486;-80
2023/06/17 09:13:35;;;;;;;4.22;1.10;;;;;;;;;;5281230;28;20074;-78
2023/06/17 09:16:06;;;;;;;2.72;1.48;;;;;;;;;;5281829;28;20056;-77
2023/06/17 09:18:38;;;;;;;2.80;0.85;;;;;;;;;;5281738;28;20062;-78
2023/06/17 09:21:14;;;;;;;3.10;1.23;;;;;;;;;;5281500;28;20066;-78
2023/06/17 09:23:51;;;;;;;2.03;0.98;;;;;;;;;;5281823;28;20020;-78
2023/06/17 09:26:23;;;;;;;3.80;1.02;;;;;;;;;;5282322;28;20385;-78
2023/06/17 09:28:59;;;;;;;2.05;1.00;;;;;;;;;;5280839;28;20103;-78
2023/06/17 09:31:31;;;;;;;5.65;1.00;;;;;;;;;;5281803;28;20012;-78
2023/06/17 09:34:02;;;;;;;2.22;1.25;;;;;;;;;;5281580;28;20085;-77
2023/06/17 09:36:34;;;;;;;2.88;0.80;;;;;;;;;;5280687;28;20039;-77
2023/06/17 09:39:05;;;;;;;2.87;0.90;;;;;;;;;;5281313;28;20020;-78
2023/06/17 09:41:40;;;;;;;2.75;0.90;;;;;;;;;;5281339;28;20387;-78
2023/06/17 09:44:12;;;;;;;3.40;0.82;;;;;;;;;;5280540;28;20024;-80
2023/06/17 09:46:46;;;;;;;2.70;1.20;;;;;;;;;;5280916;28;20032;-76
2023/06/17 09:49:23;;;;;;;3.03;0.90;;;;;;;;;;5280860;28;20040;-80
2023/06/17 09:51:54;;;;;;;3.60;1.20;;;;;;;;;;5280980;28;20056;-80
2023/06/17 09:54:26;;;;;;;2.90;0.83;;;;;;;;;;5281810;28;20017;-80
2023/06/17 09:56:59;;;;;;;1.77;0.90;;;;;;;;;;5280653;28;20028;-78
2023/06/17 09:59:31;;;;;;;3.67;0.90;;;;;;;;;;5281635;28;20044;-76
2023/06/17 10:02:02;;;;;;;2.45;1.00;;;;;;;;;;5281416;28;20055;-79
2023/06/17 10:04:33;;;;;;;2.33;0.80;;;;;;;;;;5280670;28;20548;-79
2023/06/17 10:07:05;;;;;;;3.08;0.90;;;;;;;;;;5281142;28;20103;-79
2023/06/17 10:09:36;;;;;;;2.95;0.73;;;;;;;;;;5281536;28;20020;-79
2023/06/17 10:12:08;;;;;;;3.33;0.90;;;;;;;;;;5280600;28;20100;-78
2023/06/17 10:14:40;;;;;;;2.30;0.80;;;;;;;;;;5280889;28;20316;-79
2023/06/17 10:17:12;;;;;;;2.33;0.90;;;;;;;;;;5281122;28;20033;-79
2023/06/17 10:19:44;;;;;;;2.03;0.80;;;;;;;;;;5281095;28;20031;-80
2023/06/17 10:22:19;;;;;;;2.95;0.70;;;;;;;;;;5281111;28;20063;-77
2023/06/17 10:24:50;;;;;;;1.48;0.70;;;;;;;;;;5280035;28;20425;-78
2023/06/17 10:27:22;;;;;;;4.45;1.02;;;;;;;;;;5281203;28;20020;-79
2023/06/17 10:29:56;;;;;;;2.70;0.80;;;;;;;;;;5281210;28;20044;-78
2023/06/17 10:32:27;;;;;;;1.90;0.80;;;;;;;;;;5280707;28;20421;-78
2023/06/17 10:35:06;;;;;;;2.63;0.77;;;;;;;;;;5281137;28;20074;-77
2023/06/17 10:37:46;;;;;;;2.80;0.95;;;;;;;;;;5280870;28;20032;-78
2023/06/17 10:40:17;;;;;;;5.60;1.40;;;;;;;;;;5280480;28;20379;-78
2023/06/17 10:42:55;;;;;;;1.70;0.83;;;;;;;;;;5280832;28;20025;-77
2023/06/17 10:45:30;;;;;;;3.28;0.90;;;;;;;;;;5280585;28;20278;-79
2023/06/17 10:48:16;;;;;;;2.08;1.00;;;;;;;;;;5280632;28;20021;-78
2023/06/17 10:50:51;;;;;;;4.03;0.90;;;;;;;;;;5280312;28;20124;-79
2023/06/17 10:53:27;;;;;;;3.85;1.00;;;;;;;;;;5280478;28;20458;-78
2023/06/17 10:55:59;;;;;;;2.42;0.93;;;;;;;;;;5281696;28;20036;-78
2023/06/17 10:58:31;;;;;;;1.48;0.85;;;;;;;;;;5284492;28;20371;-78
2023/06/17 11:01:06;;;;;;;1.98;0.93;;;;;;;;;;5284226;28;20031;-78
2023/06/17 11:03:38;;;;;;;2.42;1.10;;;;;;;;;;5284483;28;20027;-79
2023/06/17 11:06:10;;;;;;;1.98;1.00;;;;;;;;;;5284065;28;20467;-79
2023/06/17 11:08:41;;;;;;;1.55;0.77;;;;;;;;;;5284247;28;20023;-79
2023/06/17 11:11:13;;;;;;;2.58;0.90;;;;;;;;;;5284808;28;20456;-79
2023/06/17 11:13:48;;;;;;;2.03;1.08;;;;;;;;;;5283385;28;20460;-78
2023/06/17 11:16:20;;;;;;;3.75;1.02;;;;;;;;;;5284523;28;20099;-79
2023/06/17 11:18:51;;;;;;;2.70;1.30;;;;;;;;;;5284024;28;20025;-79
2023/06/17 11:21:22;;;;;;;3.10;1.00;;;;;;;;;;5283656;28;20562;-78
2023/06/17 11:23:53;;;;;;;2.30;1.30;;;;;;;;;;5283987;28;20369;-79
2023/06/17 11:26:25;;;;;;;2.10;1.00;;;;;;;;;;5284071;28;20275;-79
2023/06/17 11:28:56;;;;;;;4.97;1.33;;;;;;;;;;5283202;28;20130;-79
2023/06/17 11:31:28;;;;;;;4.88;1.10;;;;;;;;;;5284037;28;20374;-79
2023/06/17 11:34:00;;;;;;;2.30;1.30;;;;;;;;;;5283934;28;20021;-78
2023/06/17 11:36:31;;;;;;;2.67;1.25;;;;;;;;;;5283034;28;20111;-78
2023/06/17 11:39:02;;;;;;;6.10;1.37;;;;;;;;;;5283926;28;20012;-77
2023/06/17 11:41:33;;;;;;;2.75;1.25;;;;;;;;;;5283061;28;20187;-77
2023/06/17 11:44:06;;;;;;;3.33;1.40;;;;;;;;;;5283591;28;20050;-79
2023/06/17 11:46:37;;;;;;;1.98;1.02;;;;;;;;;;5283499;28;20081;-79
2023/06/17 11:49:08;;;;;;;2.22;1.10;;;;;;;;;;5282788;28;20020;-79
2023/06/17 11:51:46;;;;;;;2.47;1.10;;;;;;;;;;5283126;28;20052;-78
2023/06/17 11:54:18;;;;;;;2.63;1.13;;;;;;;;;;5283803;28;20263;-79
2023/06/17 11:56:49;;;;;;;1.98;1.05;;;;;;;;;;5282035;28;20033;-78
2023/06/17 11:59:21;;;;;;;1.90;1.10;;;;;;;;;;5283553;28;20478;-79
2023/06/17 12:01:53;;;;;;;3.80;1.45;;;;;;;;;;5282773;28;20354;-79
2023/06/17 12:04:25;;;;;;;2.95;1.10;;;;;;;;;;5282628;28;20021;-79
2023/06/17 12:06:56;;;;;;;1.75;0.90;;;;;;;;;;5282986;28;20124;-79
2023/06/17 12:09:27;;;;;;;1.80;1.00;;;;;;;;;;5282108;28;20346;-79
2023/06/17 12:11:58;;;;;;;1.47;0.83;;;;;;;;;;5283317;28;20108;-80
2023/06/17 12:14:29;;;;;;;2.53;1.00;;;;;;;;;;5283675;28;20760;-80
2023/06/17 12:17:01;;;;;;;1.87;1.07;;;;;;;;;;5282512;28;20333;-80
2023/06/17 12:19:36;;;;;;;2.77;0.90;;;;;;;;;;5283062;28;20699;-80
2023/06/17 12:22:11;;;;;;;2.75;0.98;;;;;;;;;;5283519;28;20074;-79
2023/06/17 12:24:43;;;;;;;2.67;1.42;;;;;;;;;;5281992;28;20039;-80
2023/06/17 12:27:14;;;;;;;3.83;1.13;;;;;;;;;;5283300;28;20021;-80
2023/06/17 12:29:45;;;;;;;2.70;1.10;;;;;;;;;;5282755;28;20044;-80
2023/06/17 12:32:16;;;;;;;2.60;1.30;;;;;;;;;;5281900;28;20158;-80
2023/06/17 12:34:48;;;;;;;2.35;1.50;;;;;;;;;;5282367;28;20016;-79
2023/06/17 12:37:22;;;;;;;1.60;1.00;;;;;;;;;;5282889;28;20107;-78
2023/06/17 12:39:57;;;;;;;2.22;0.80;;;;;;;;;;5281593;28;20025;-78
2023/06/17 12:42:29;;;;;;;3.35;1.20;;;;;;;;;;5282696;28;20020;-79
2023/06/17 12:45:01;;;;;;;3.15;1.42;;;;;;;;;;5281879;28;20024;-78
2023/06/17 12:47:32;;;;;;;1.52;0.70;;;;;;;;;;5282772;28;20519;-78
2023/06/17 12:50:03;;;;;;;2.60;1.30;;;;;;;;;;5282643;28;21071;-78
2023/06/17 12:52:35;;;;;;;1.42;1.05;;;;;;;;;;5281829;28;20255;-79
2023/06/17 12:55:07;;;;;;;2.08;0.90;;;;;;;;;;5282534;28;20017;-78
2023/06/17 12:57:38;;;;;;;3.13;1.10;;;;;;;;;;5282192;28;20032;-79
2023/06/17 13:00:10;;;;;;;3.75;1.17;;;;;;;;;;5281629;28;20020;-78
2023/06/17 13:02:42;;;;;;;1.98;1.00;;;;;;;;;;5282182;28;20053;-80
2023/06/17 13:05:13;;;;;;;1.73;1.20;;;;;;;;;;5282196;28;20463;-77
2023/06/17 13:07:44;;;;;;;3.37;1.53;;;;;;;;;;5280973;28;20577;-78
2023/06/17 13:10:16;;;;;;;2.67;1.07;;;;;;;;;;5282859;28;20096;-77
2023/06/17 13:12:47;;;;;;;2.30;1.10;;;;;;;;;;5281277;28;20039;-77
2023/06/17 13:15:18;;;;;;;1.60;0.90;;;;;;;;;;5282587;28;20279;-78
2023/06/17 13:17:50;;;;;;;3.10;1.20;;;;;;;;;;5281927;28;20020;-78
2023/06/17 13:20:21;;;;;;;3.20;1.10;;;;;;;;;;5279398;28;20154;-78
2023/06/17 13:22:52;;;;;;;6.20;1.20;;;;;;;;;;5281823;28;20021;-78
2023/06/17 13:25:24;;;;;;;3.05;1.25;;;;;;;;;;5282239;28;20017;-78
2023/06/17 13:27:56;;;;;;;2.70;1.33;;;;;;;;;;5281092;28;20027;-78
2023/06/17 13:30:27;;;;;;;1.50;1.10;;;;;;;;;;5281971;28;20017;-78
2023/06/17 13:32:58;;;;;;;3.63;0.93;;;;;;;;;;5281685;28;20388;-78
2023/06/17 13:35:29;;;;;;;2.63;0.90;;;;;;;;;;5281060;28;20048;-79
2023/06/17 13:38:02;;;;;;;3.10;1.33;;;;;;;;;;5281822;28;20263;-78
2023/06/17 13:40:33;;;;;;;2.90;1.10;;;;;;;;;;5281871;28;20025;-78
2023/06/17 13:43:05;;;;;;;7.37;1.63;;;;;;;;;;5280420;28;20088;-79
2023/06/17 13:45:37;;;;;;;2.57;1.20;;;;;;;;;;5281677;28;20609;-79
2023/06/17 13:48:09;;;;;;;3.25;1.15;;;;;;;;;;5280531;28;20285;-79
2023/06/17 13:50:40;;;;;;;3.65;1.20;;;;;;;;;;5280822;28;20430;-78
2023/06/17 13:53:11;;;;;;;1.67;1.07;;;;;;;;;;5281724;28;20024;-79
2023/06/17 13:55:42;;;;;;;3.63;1.10;;;;;;;;;;5280481;28;20025;-78
2023/06/17 13:58:14;;;;;;;4.20;1.20;;;;;;;;;;5281730;28;20013;-78
2023/06/17 14:00:46;;;;;;;4.13;1.10;;;;;;;;;;5280967;28;20415;-78
2023/06/17 14:03:17;;;;;;;2.33;1.00;;;;;;;;;;5281171;28;20020;-78
2023/06/17 14:05:49;;;;;;;1.83;1.02;;;;;;;;;;5280743;28;20020;-78
2023/06/17 14:08:20;;;;;;;3.88;1.27;;;;;;;;;;5281741;28;20363;-79
2023/06/17 14:10:51;;;;;;;3.00;1.30;;;;;;;;;;5280444;28;20438;-81
2023/06/17 14:13:22;;;;;;;3.30;1.37;;;;;;;;;;5281790;28;20031;-80
2023/06/17 14:15:54;;;;;;;4.50;1.43;;;;;;;;;;5281087;28;20024;-79
2023/06/17 14:18:25;;;;;;;3.42;1.40;;;;;;;;;;5280620;28;20031;-78
2023/06/17 14:20:56;;;;;;;3.05;1.40;;;;;;;;;;5281541;28;20028;-81
2023/06/17 14:23:27;;;;;;;6.07;1.10;;;;;;;;;;5280751;28;20025;-83
2023/06/17 14:25:59;;;;;;;5.30;1.40;;;;;;;;;;5281311;28;20271;-80
2023/06/17 14:28:30;;;;;;;1.65;0.90;;;;;;;;;;5281232;28;20023;-81
2023/06/17 14:31:01;;;;;;;2.50;1.10;;;;;;;;;;5281635;28;20096;-82
2023/06/17 14:33:33;;;;;;;5.33;1.03;;;;;;;;;;5285476;28;20082;-81
2023/06/17 14:36:04;;;;;;;2.38;1.10;;;;;;;;;;5285462;28;20060;-81
2023/06/17 14:38:36;;;;;;;5.82;1.10;;;;;;;;;;5284403;28;20036;-81
2023/06/17 14:41:07;;;;;;;4.00;1.60;;;;;;;;;;5284982;28;20370;-81
2023/06/17 14:43:39;;;;;;;2.17;1.43;;;;;;;;;;5284811;28;20012;-81
2023/06/17 14:46:10;;;;;;;3.13;1.20;;;;;;;;;;5284611;28;20020;-80
2023/06/17 14:48:42;;;;;;;2.42;1.00;;;;;;;;;;5284782;28;20028;-81
2023/06/17 14:51:13;;;;;;;1.80;1.27;;;;;;;;;;5284292;28;20417;-81
2023/06/17 14:53:45;;;;;;;3.67;1.33;;;;;;;;;;5284696;28;20012;-80
2023/06/17 14:56:24;;;;;;;3.90;1.27;;;;;;;;;;5285136;28;20071;-81
2023/06/17 14:58:56;;;;;;;3.97;1.35;;;;;;;;;;5284052;28;20031;-81
2023/06/17 15:01:31;;;;;;;4.95;1.55;;;;;;;;;;5284961;28;20104;-80
2023/06/17 15:04:03;;;;;;;3.05;1.20;;;;;;;;;;5284769;28;20025;-81
2023/06/17 15:06:35;;;;;;;5.25;1.20;;;;;;;;;;5283772;28;20024;-81
2023/06/17 15:09:24;;;;;;;3.45;1.30;;;;;;;;;;5284688;28;20077;-80